createdAt,value
2019-03-09T00:01:04.966Z,94.80
2019-03-09T00:03:33.682Z,95.00
2019-03-09T00:06:02.430Z,95.00
2019-03-09T00:08:31.083Z,95.20
2019-03-09T00:10:59.744Z,95.00
2019-03-09T00:13:28.406Z,95.20
2019-03-09T00:15:57.170Z,95.10
2019-03-09T00:18:25.978Z,95.20
2019-03-09T00:20:54.892Z,95.50
2019-03-09T00:23:40.567Z,95.10
2019-03-09T00:26:11.026Z,95.40
2019-03-09T00:28:41.452Z,95.50
2019-03-09T00:31:11.809Z,95.80
2019-03-09T00:33:41.729Z,95.70
2019-03-09T00:36:10.629Z,95.80
2019-03-09T00:38:39.406Z,95.90
2019-03-09T00:41:08.164Z,95.80
2019-03-09T00:43:36.816Z,96.00
2019-03-09T00:46:05.627Z,96.00
2019-03-09T00:48:34.514Z,95.80
2019-03-09T00:51:03.228Z,95.90
2019-03-09T00:53:32.178Z,96.00
2019-03-09T00:56:00.782Z,96.00
2019-03-09T00:58:29.508Z,96.00
2019-03-09T01:00:58.366Z,95.80
2019-03-09T01:03:26.898Z,95.70
2019-03-09T01:05:55.660Z,95.80
2019-03-09T01:08:24.444Z,95.60
2019-03-09T01:10:53.202Z,95.90
2019-03-09T01:13:21.996Z,95.60
2019-03-09T01:15:50.769Z,95.60
2019-03-09T01:18:19.474Z,95.60
2019-03-09T01:20:48.325Z,95.60
2019-03-09T01:23:17.152Z,95.60
2019-03-09T01:25:45.850Z,95.80
2019-03-09T01:28:14.861Z,96.10
2019-03-09T01:30:45.192Z,96.00
2019-03-09T01:33:13.928Z,95.90
2019-03-09T01:35:42.764Z,95.90
2019-03-09T01:38:11.531Z,96.10
2019-03-09T01:40:42.053Z,96.20
2019-03-09T01:43:10.798Z,96.20
2019-03-09T01:45:39.754Z,96.10
2019-03-09T01:48:08.681Z,96.00
2019-03-09T01:50:37.432Z,95.90
2019-03-09T01:53:06.371Z,96.00
2019-03-09T01:55:35.321Z,96.00
2019-03-09T01:58:04.136Z,96.00
2019-03-09T02:00:33.160Z,96.20
2019-03-09T02:03:34.544Z,96.50
2019-03-09T02:06:03.507Z,96.40
2019-03-09T02:08:52.944Z,96.30
2019-03-09T02:11:24.256Z,96.20
2019-03-09T02:13:54.744Z,96.10
2019-03-09T02:16:47.138Z,96.10
2019-03-09T02:19:20.548Z,96.00
2019-03-09T02:21:49.390Z,96.10
2019-03-09T02:24:28.335Z,96.10
2019-03-09T02:26:54.830Z,96.10
2019-03-09T02:29:23.801Z,96.00
2019-03-09T02:31:52.667Z,96.00
2019-03-09T02:34:28.347Z,96.00
2019-03-09T02:36:57.230Z,95.80
2019-03-09T02:39:55.941Z,95.80
2019-03-09T02:42:37.225Z,95.70
2019-03-09T02:48:01.068Z,95.70
2019-03-09T02:56:32.666Z,95.20
2019-03-09T02:59:01.459Z,95.10
2019-03-09T03:01:31.861Z,95.20
2019-03-09T03:04:02.331Z,95.00
2019-03-09T03:06:31.286Z,95.20
2019-03-09T03:09:07.289Z,95.00
2019-03-09T03:11:41.127Z,95.10
2019-03-09T03:14:10.130Z,94.90
2019-03-09T03:16:50.261Z,94.90
2019-03-09T03:19:29.096Z,94.80
2019-03-09T03:22:01.723Z,94.80
2019-03-09T03:24:39.928Z,94.80
2019-03-09T03:27:08.889Z,94.80
2019-03-09T03:29:39.419Z,94.70
2019-03-09T03:32:12.346Z,94.60
2019-03-09T03:34:43.057Z,94.50
2019-03-09T03:37:11.985Z,94.40
2019-03-09T03:39:42.476Z,94.50
2019-03-09T03:42:11.489Z,94.30
2019-03-09T03:44:55.268Z,94.10
2019-03-09T03:47:24.048Z,94.10
2019-03-09T03:49:52.858Z,93.70
2019-03-09T03:52:21.752Z,93.90
2019-03-09T03:54:50.675Z,93.90
2019-03-09T03:57:25.290Z,93.80
2019-03-09T04:00:00.597Z,93.90
2019-03-09T04:02:29.755Z,93.90
2019-03-09T04:05:20.050Z,93.60
2019-03-09T04:07:45.023Z,93.60
2019-03-09T04:10:15.398Z,93.70
2019-03-09T04:12:44.408Z,93.50
2019-03-09T04:15:15.044Z,93.20
2019-03-09T04:17:46.948Z,93.20
2019-03-09T04:20:15.749Z,93.10
2019-03-09T04:22:44.627Z,93.00
2019-03-09T04:25:17.694Z,93.10
2019-03-09T04:27:46.573Z,92.80
2019-03-09T04:30:15.303Z,92.70
2019-03-09T04:32:50.581Z,92.80
2019-03-09T04:36:06.198Z,92.90
2019-03-09T04:38:38.087Z,92.80
2019-03-09T04:41:06.933Z,92.80
2019-03-09T04:43:35.655Z,92.70
2019-03-09T04:46:07.265Z,92.80
2019-03-09T04:48:35.850Z,92.90
2019-03-09T04:51:04.794Z,92.80
2019-03-09T04:53:33.507Z,93.10
2019-03-09T04:56:02.527Z,93.10
2019-03-09T04:58:33.000Z,92.90
2019-03-09T05:01:01.717Z,93.00
2019-03-09T05:03:30.471Z,92.90
2019-03-09T05:05:59.313Z,92.80
2019-03-09T05:08:36.599Z,92.80
2019-03-09T05:11:07.775Z,92.90
2019-03-09T05:13:39.297Z,93.10
2019-03-09T05:16:07.956Z,93.00
2019-03-09T05:18:36.691Z,92.90
2019-03-09T05:21:05.620Z,92.90
2019-03-09T05:23:34.642Z,92.80
2019-03-09T05:26:06.335Z,92.70
2019-03-09T05:28:37.197Z,92.70
2019-03-09T05:31:05.994Z,92.90
2019-03-09T05:33:34.733Z,92.80
2019-03-09T05:36:03.751Z,92.60
2019-03-09T05:38:32.603Z,92.50
2019-03-09T05:41:04.325Z,92.50
2019-03-09T05:43:54.734Z,92.60
2019-03-09T05:46:23.663Z,92.60
2019-03-09T05:48:56.647Z,92.80
2019-03-09T05:51:25.233Z,92.70
2019-03-09T05:53:53.964Z,92.60
2019-03-09T05:56:22.689Z,92.50
2019-03-09T05:58:51.855Z,92.40
2019-03-09T06:01:20.655Z,92.30
2019-03-09T06:03:49.565Z,92.50
2019-03-09T06:06:18.272Z,92.40
2019-03-09T06:08:46.990Z,92.10
2019-03-09T06:11:15.677Z,92.20
2019-03-09T06:13:44.329Z,91.80
2019-03-09T06:16:12.981Z,91.70
2019-03-09T06:18:41.659Z,91.50
2019-03-09T06:21:11.745Z,91.50
2019-03-09T06:23:40.327Z,91.10
2019-03-09T06:26:09.043Z,91.10
2019-03-09T06:28:37.641Z,91.00
2019-03-09T06:31:06.283Z,91.00
2019-03-09T06:33:34.935Z,91.00
2019-03-09T06:39:04.396Z,91.10
2019-03-09T06:41:41.675Z,91.20
2019-03-09T06:44:10.284Z,91.00
2019-03-09T06:46:38.877Z,91.20
2019-03-09T06:49:09.305Z,91.20
2019-03-09T06:51:38.103Z,91.10
2019-03-09T06:54:06.825Z,91.10
2019-03-09T06:56:35.569Z,91.10
2019-03-09T06:59:04.740Z,91.00
2019-03-09T07:01:33.669Z,91.20
2019-03-09T07:04:02.943Z,91.30
2019-03-09T07:06:31.735Z,91.20
2019-03-09T07:09:00.313Z,91.20
2019-03-09T07:11:29.739Z,91.30
2019-03-09T07:14:01.459Z,91.30
2019-03-09T07:16:30.367Z,91.20
2019-03-09T07:18:58.897Z,91.10
2019-03-09T07:21:27.588Z,91.10
2019-03-09T07:23:56.379Z,91.20
2019-03-09T07:26:25.154Z,91.10
2019-03-09T07:28:53.883Z,90.80
2019-03-09T07:31:22.504Z,90.80
2019-03-09T07:33:54.223Z,90.90
2019-03-09T07:36:22.956Z,90.80
2019-03-09T07:38:51.625Z,90.50
2019-03-09T07:41:20.265Z,90.20
2019-03-09T07:43:49.262Z,90.70
2019-03-09T07:46:18.015Z,90.20
2019-03-09T07:48:46.704Z,90.00
2019-03-09T07:51:15.434Z,90.00
2019-03-09T07:53:44.032Z,90.20
2019-03-09T07:56:12.646Z,90.00
2019-03-09T07:58:41.280Z,89.70
2019-03-09T08:01:09.998Z,90.00
2019-03-09T08:03:38.700Z,90.10
2019-03-09T08:06:07.292Z,90.20
2019-03-09T08:08:35.847Z,90.00
2019-03-09T08:11:04.497Z,90.20
2019-03-09T08:13:33.189Z,90.40
2019-03-09T08:16:04.915Z,90.00
2019-03-09T08:18:33.624Z,90.00
2019-03-09T08:21:02.441Z,89.40
2019-03-09T08:23:31.205Z,89.10
2019-03-09T08:26:00.087Z,88.70
2019-03-09T08:28:28.792Z,88.50
2019-03-09T08:30:57.499Z,87.80
2019-03-09T08:33:26.230Z,88.40
2019-03-09T08:35:55.027Z,88.50
2019-03-09T08:38:23.750Z,89.00
2019-03-09T08:40:52.461Z,88.60
2019-03-09T08:43:21.201Z,88.60
2019-03-09T08:45:49.986Z,88.40
2019-03-09T08:48:18.745Z,88.60
2019-03-09T08:50:47.394Z,88.60
2019-03-09T08:53:16.087Z,88.10
2019-03-09T08:55:44.773Z,87.90
2019-03-09T08:58:13.510Z,88.40
2019-03-09T09:00:42.376Z,88.60
2019-03-09T09:03:10.913Z,88.40
2019-03-09T09:05:39.903Z,88.20
2019-03-09T09:08:08.709Z,88.20
2019-03-09T09:10:37.386Z,88.60
2019-03-09T09:13:06.145Z,88.30
2019-03-09T09:15:34.785Z,88.60
2019-03-09T09:18:03.513Z,88.20
2019-03-09T09:20:32.397Z,87.60
2019-03-09T09:23:01.146Z,87.40
2019-03-09T09:25:30.151Z,87.90
2019-03-09T09:27:58.798Z,87.70
2019-03-09T09:30:29.652Z,88.20
2019-03-09T09:32:58.767Z,89.20
2019-03-09T09:35:27.680Z,89.10
2019-03-09T09:37:56.357Z,88.50
2019-03-09T09:40:28.447Z,89.30
2019-03-09T09:42:57.285Z,88.90
2019-03-09T09:45:26.037Z,89.00
2019-03-09T09:47:58.934Z,89.30
2019-03-09T09:50:27.523Z,88.40
2019-03-09T09:52:56.218Z,88.80
2019-03-09T09:55:27.182Z,88.00
2019-03-09T09:57:55.900Z,88.10
2019-03-09T10:00:32.762Z,86.50
2019-03-09T10:03:01.370Z,86.50
2019-03-09T10:05:29.943Z,86.40
2019-03-09T10:07:58.576Z,84.20
2019-03-09T10:10:29.671Z,85.00
2019-03-09T10:12:57.846Z,82.20
2019-03-09T10:15:29.036Z,82.10
2019-03-09T10:17:57.839Z,81.20
2019-03-09T10:20:26.686Z,80.50
2019-03-09T10:23:03.782Z,80.20
2019-03-09T10:25:25.670Z,81.30
2019-03-09T10:27:54.402Z,81.00
2019-03-09T10:30:36.628Z,80.00
2019-03-09T10:33:05.327Z,80.70
2019-03-09T10:35:34.080Z,81.10
2019-03-09T10:38:05.731Z,79.40
2019-03-09T10:40:33.634Z,80.90
2019-03-09T10:43:02.287Z,79.40
2019-03-09T10:45:33.056Z,80.30
2019-03-09T10:48:01.818Z,80.60
2019-03-09T10:50:30.932Z,79.50
2019-03-09T10:56:11.636Z,77.50
2019-03-09T10:58:41.822Z,77.70
2019-03-09T11:01:10.694Z,77.40
2019-03-09T11:03:39.792Z,77.70
2019-03-09T11:06:21.765Z,78.50
2019-03-09T11:09:11.999Z,78.50
2019-03-09T11:11:46.140Z,78.50
2019-03-09T11:14:14.706Z,79.00
2019-03-09T11:16:43.270Z,78.80
2019-03-09T11:19:11.896Z,78.80
2019-03-09T11:21:40.490Z,78.50
2019-03-09T11:24:09.096Z,79.10
2019-03-09T11:26:37.696Z,80.50
2019-03-09T11:29:06.448Z,80.10
2019-03-09T11:31:35.054Z,80.60
2019-03-09T11:34:03.770Z,80.40
2019-03-09T11:36:32.492Z,80.40
2019-03-09T11:39:01.206Z,79.70
2019-03-09T11:41:30.114Z,79.90
2019-03-09T11:43:58.737Z,79.70
2019-03-09T11:46:27.326Z,80.30
2019-03-09T11:48:55.920Z,80.20
2019-03-09T11:51:24.495Z,79.20
2019-03-09T11:53:53.049Z,78.50
2019-03-09T11:56:21.790Z,79.30
2019-03-09T11:58:50.438Z,78.30
2019-03-09T12:01:19.046Z,78.40
2019-03-09T12:03:47.628Z,78.50
2019-03-09T12:06:16.203Z,78.20
2019-03-09T12:08:44.760Z,76.30
2019-03-09T12:11:13.377Z,76.20
2019-03-09T12:13:41.994Z,76.10
2019-03-09T12:16:10.763Z,76.00
2019-03-09T12:18:39.483Z,76.10
2019-03-09T12:21:08.308Z,75.90
2019-03-09T12:23:36.926Z,77.50
2019-03-09T12:26:06.168Z,77.80
2019-03-09T12:28:34.738Z,78.50
2019-03-09T12:31:04.680Z,77.70
2019-03-09T12:33:49.577Z,78.30
2019-03-09T12:36:52.770Z,78.10
2019-03-09T12:39:27.653Z,77.60
2019-03-09T12:42:34.574Z,78.80
2019-03-09T12:45:03.833Z,79.00
2019-03-09T12:47:35.880Z,79.20
2019-03-09T12:56:06.119Z,78.40
2019-03-09T12:58:59.479Z,77.70
2019-03-09T13:27:20.004Z,72.90
2019-03-09T13:29:51.426Z,71.80
2019-03-09T13:32:21.862Z,71.50
2019-03-09T13:35:19.339Z,71.30
2019-03-09T13:37:48.115Z,71.70
2019-03-09T13:43:23.769Z,71.70
2019-03-09T13:45:52.425Z,72.40
2019-03-09T13:48:22.462Z,71.60
2019-03-09T13:50:52.985Z,72.00
2019-03-09T13:53:26.135Z,71.30
2019-03-09T13:59:11.381Z,71.40
2019-03-09T14:01:37.891Z,71.80
2019-03-09T14:07:15.064Z,72.20
2019-03-09T14:10:07.210Z,73.10
2019-03-09T14:28:40.564Z,74.60
2019-03-09T14:34:48.346Z,75.30
2019-03-09T14:40:31.776Z,74.40
2019-03-09T14:43:01.563Z,74.10
2019-03-09T15:58:27.035Z,76.30
2019-03-09T16:00:45.594Z,76.40
2019-03-09T16:03:14.547Z,76.60
2019-03-09T16:18:34.898Z,77.00
2019-03-09T16:20:59.982Z,76.80
2019-03-09T16:26:27.846Z,77.30
2019-03-09T16:29:08.340Z,77.20
2019-03-09T16:31:39.240Z,77.20
2019-03-09T16:34:25.026Z,77.30
2019-03-09T16:37:01.417Z,77.40
2019-03-09T16:39:37.618Z,77.20
2019-03-09T16:42:21.900Z,77.20
2019-03-09T16:44:55.206Z,77.00
2019-03-09T16:47:25.898Z,77.10
2019-03-09T16:49:56.835Z,76.80
2019-03-09T16:52:29.316Z,77.20
2019-03-09T16:55:04.067Z,76.80
2019-03-09T17:31:06.229Z,77.50
2019-03-09T17:33:37.616Z,77.60
2019-03-09T17:36:06.527Z,76.80
2019-03-09T17:38:35.289Z,77.00
2019-03-09T17:41:04.346Z,77.30
2019-03-09T17:43:33.310Z,77.00
2019-03-09T17:46:05.530Z,77.00
2019-03-09T17:48:34.617Z,76.60
2019-03-09T17:51:03.375Z,76.40
2019-03-09T17:53:32.298Z,76.20
2019-03-09T17:56:01.180Z,75.60
2019-03-09T17:58:30.244Z,76.50
2019-03-09T18:00:59.282Z,76.70
2019-03-09T18:03:28.307Z,76.70
2019-03-09T18:05:57.227Z,76.80
2019-03-09T18:08:33.199Z,76.50
2019-03-09T18:11:08.224Z,76.50
2019-03-09T18:13:36.913Z,76.60
2019-03-09T18:16:05.762Z,77.00
2019-03-09T18:18:34.445Z,77.80
2019-03-09T18:21:03.156Z,78.30
2019-03-09T18:23:31.974Z,78.80
2019-03-09T18:26:00.638Z,79.30
2019-03-09T18:28:29.427Z,79.50
2019-03-09T18:30:58.072Z,79.80
2019-03-09T18:33:26.725Z,80.60
2019-03-09T18:35:55.396Z,80.80
2019-03-09T18:38:24.334Z,81.00
2019-03-09T18:40:54.443Z,81.20
2019-03-09T18:43:25.209Z,81.30
2019-03-09T18:45:53.974Z,81.40
2019-03-09T18:48:22.572Z,81.30
2019-03-09T18:50:51.261Z,81.00
2019-03-09T18:53:19.964Z,81.20
2019-03-09T18:55:58.605Z,81.10
2019-03-09T18:58:20.902Z,80.80
2019-03-09T19:00:49.654Z,80.60
2019-03-09T19:03:18.303Z,80.70
2019-03-09T19:05:47.040Z,81.20
2019-03-09T19:08:15.803Z,80.50
2019-03-09T19:10:44.430Z,80.80
2019-03-09T19:13:13.205Z,79.60
2019-03-09T19:15:41.893Z,79.90
2019-03-09T19:18:10.601Z,80.00
2019-03-09T19:20:39.223Z,79.70
2019-03-09T19:23:07.945Z,79.60
2019-03-09T19:25:36.584Z,79.30
2019-03-09T19:28:05.240Z,78.90
2019-03-09T19:30:33.987Z,78.60
2019-03-09T19:33:02.675Z,78.20
2019-03-09T19:35:31.259Z,79.00
2019-03-09T19:38:00.094Z,78.50
2019-03-09T19:40:28.946Z,78.30
2019-03-09T19:42:57.606Z,78.40
2019-03-09T19:45:26.344Z,78.80
2019-03-09T19:47:58.469Z,78.80
2019-03-09T19:50:28.329Z,78.90
2019-03-09T19:52:58.981Z,78.90
2019-03-09T19:55:27.548Z,79.40
2019-03-09T19:57:56.336Z,79.30
2019-03-09T20:00:24.970Z,79.30
2019-03-09T20:02:53.817Z,79.40
2019-03-09T20:05:23.693Z,79.90
2019-03-09T20:07:52.504Z,79.70
2019-03-09T20:10:31.864Z,79.70
2019-03-09T20:13:02.615Z,79.90
2019-03-09T20:15:31.558Z,79.60
2019-03-09T20:18:00.379Z,78.80
2019-03-09T20:20:29.179Z,78.40
2019-03-09T20:22:58.057Z,78.60
2019-03-09T20:25:29.028Z,78.40
2019-03-09T20:27:57.938Z,77.50
2019-03-09T20:30:26.946Z,77.50
2019-03-09T20:32:55.815Z,76.60
2019-03-09T20:35:24.486Z,76.30
2019-03-09T20:37:53.216Z,75.70
2019-03-09T20:40:21.996Z,75.20
2019-03-09T20:42:50.811Z,74.80
2019-03-09T20:45:20.599Z,75.20
2019-03-09T20:47:49.300Z,76.10
2019-03-09T20:50:19.193Z,76.30
2019-03-09T20:52:47.855Z,76.80
2019-03-09T20:55:16.568Z,77.00
2019-03-09T20:57:45.294Z,76.70
2019-03-09T21:00:21.233Z,76.80
2019-03-09T21:02:49.831Z,76.90
2019-03-09T21:05:18.484Z,76.10
2019-03-09T21:07:47.099Z,76.80
2019-03-09T21:10:19.502Z,76.60
2019-03-09T21:13:02.739Z,77.10
2019-03-09T21:15:31.411Z,77.40
2019-03-09T21:18:00.117Z,77.50
2019-03-09T21:20:28.770Z,77.50
2019-03-09T21:22:57.511Z,77.90
2019-03-09T21:25:26.248Z,77.90
2019-03-09T21:27:54.965Z,78.10
2019-03-09T21:30:23.687Z,78.10
2019-03-09T21:32:52.407Z,78.50
2019-03-09T21:35:21.114Z,78.90
2019-03-09T21:37:50.870Z,78.70
2019-03-09T21:40:19.569Z,78.90
2019-03-09T21:42:48.261Z,79.20
2019-03-09T21:45:17.156Z,79.60
2019-03-09T21:47:45.919Z,79.90
2019-03-09T21:50:18.073Z,80.00
2019-03-09T21:52:46.906Z,79.90
2019-03-09T21:55:16.419Z,80.30
2019-03-09T21:57:45.287Z,80.30
2019-03-09T22:00:18.068Z,80.90
2019-03-09T22:02:47.032Z,81.40
2019-03-09T22:05:15.921Z,81.60
2019-03-09T22:07:44.569Z,81.60
2019-03-09T22:10:14.013Z,81.90
2019-03-09T22:12:42.838Z,82.30
2019-03-09T22:15:16.184Z,82.10
2019-03-09T22:17:44.995Z,81.90
2019-03-09T22:20:14.699Z,81.80
2019-03-09T22:22:43.584Z,82.00
2019-03-09T22:25:13.281Z,82.30
2019-03-09T22:27:42.096Z,82.00
2019-03-09T22:30:15.158Z,82.60
2019-03-09T22:32:43.969Z,83.10
2019-03-09T22:35:13.705Z,83.40
2019-03-09T22:37:42.738Z,83.30
2019-03-09T22:40:14.007Z,82.80
2019-03-09T22:42:48.914Z,83.10
2019-03-09T22:45:17.640Z,82.50
2019-03-09T22:47:46.357Z,82.50
2019-03-09T22:50:18.988Z,82.40
2019-03-09T22:52:47.759Z,82.60
2019-03-09T22:55:16.683Z,82.40
2019-03-09T22:57:45.452Z,83.00
2019-03-09T23:00:25.267Z,82.80
2019-03-09T23:02:57.141Z,82.70
2019-03-09T23:05:25.463Z,82.60
2019-03-09T23:07:54.168Z,82.50
2019-03-09T23:10:26.820Z,83.20
2019-03-09T23:12:55.469Z,81.80
2019-03-09T23:15:24.131Z,81.60
2019-03-09T23:17:52.849Z,81.10
2019-03-09T23:20:21.467Z,80.70
2019-03-09T23:22:50.113Z,81.20
2019-03-09T23:25:18.827Z,80.70
2019-03-09T23:27:47.573Z,81.30
2019-03-09T23:30:23.327Z,81.50
2019-03-09T23:32:54.931Z,81.90
2019-03-09T23:35:23.588Z,80.70
2019-03-09T23:37:52.579Z,80.20
2019-03-09T23:40:23.077Z,80.50
2019-03-09T23:42:51.889Z,81.10
2019-03-09T23:45:22.928Z,81.00
2019-03-09T23:47:52.109Z,82.30
2019-03-09T23:50:21.038Z,83.30
2019-03-09T23:52:50.093Z,83.30
2019-03-09T23:55:22.621Z,83.80
2019-03-09T23:57:49.514Z,83.60
